<?xml version="1.0" encoding="UTF-8" standalone="no" ?>
<gpx xmlns="http://www.topografix.com/GPX/1/1" xmlns:xsi="http://www.w3.org/2001/XMLSchema-instance" xsi:schemaLocation="http://www.topografix.com/GPX/1/1 http://www.topografix.com/GPX/1/1/gpx.xsd" version="1.1" creator="VisuGPX - https://www.visugpx.com">
  <metadata>
    <name>ARQUES LA SEYNE SUR MER 1497 KM</name>
    <desc><![CDATA[Rando de Arques dans le Pas de Calais jusque La Seyne sur Mer dans le Var, 1497 km]]></desc>
  </metadata>
  <trk>
    <name><![CDATA[29 - MAREY LES FUSSEY ORCHES 26.7 KM]]></name>
    <extensions>
      <line xmlns="http://www.topografix.com/GPX/gpx_style/0/2">
        <color>00FFFF</color>
        <width>4</width>
      </line>
    </extensions>
    <trkseg>
      <trkpt lat="47.1176" lon="4.86369">
        <ele>389</ele>
        <time>2021-11-10T17:54:02+01:00</time>
      </trkpt>
      <trkpt lat="47.11679" lon="4.86484">
        <ele>386</ele>
        <time>2021-11-10T17:54:07+01:00</time>
      </trkpt>
      <trkpt lat="47.1166" lon="4.86562">
        <ele>388</ele>
        <time>2021-11-10T17:54:12+01:00</time>
      </trkpt>
      <trkpt lat="47.11455" lon="4.86459">
        <ele>407</ele>
        <time>2021-11-10T17:54:17+01:00</time>
      </trkpt>
      <trkpt lat="47.11225" lon="4.86239">
        <ele>425</ele>
        <time>2021-11-10T17:54:22+01:00</time>
      </trkpt>
      <trkpt lat="47.11026" lon="4.85884">
        <ele>426</ele>
        <time>2021-11-10T17:54:27+01:00</time>
      </trkpt>
      <trkpt lat="47.10855" lon="4.85981">
        <ele>420</ele>
        <time>2021-11-10T17:54:32+01:00</time>
      </trkpt>
      <trkpt lat="47.10673" lon="4.8595">
        <ele>412</ele>
        <time>2021-11-10T17:54:37+01:00</time>
      </trkpt>
      <trkpt lat="47.10554" lon="4.85835">
        <ele>405</ele>
        <time>2021-11-10T17:54:42+01:00</time>
      </trkpt>
      <trkpt lat="47.10415" lon="4.85766">
        <ele>394</ele>
        <time>2021-11-10T17:54:47+01:00</time>
      </trkpt>
      <trkpt lat="47.10336" lon="4.85692">
        <ele>393</ele>
        <time>2021-11-10T17:54:52+01:00</time>
      </trkpt>
      <trkpt lat="47.10066" lon="4.85372">
        <ele>390</ele>
        <time>2021-11-10T17:54:57+01:00</time>
      </trkpt>
      <trkpt lat="47.10243" lon="4.85353">
        <ele>364</ele>
        <time>2021-11-10T17:55:02+01:00</time>
      </trkpt>
      <trkpt lat="47.10174" lon="4.85309">
        <ele>364</ele>
        <time>2021-11-10T17:55:07+01:00</time>
      </trkpt>
      <trkpt lat="47.09958" lon="4.85101">
        <ele>357</ele>
        <time>2021-11-10T17:55:12+01:00</time>
      </trkpt>
      <trkpt lat="47.09744" lon="4.84896">
        <ele>354</ele>
        <time>2021-11-10T17:55:17+01:00</time>
      </trkpt>
      <trkpt lat="47.09522" lon="4.8471">
        <ele>353</ele>
        <time>2021-11-10T17:55:22+01:00</time>
      </trkpt>
      <trkpt lat="47.09433" lon="4.84688">
        <ele>352</ele>
        <time>2021-11-10T17:55:27+01:00</time>
      </trkpt>
      <trkpt lat="47.09078" lon="4.84679">
        <ele>344</ele>
        <time>2021-11-10T17:55:32+01:00</time>
      </trkpt>
      <trkpt lat="47.08881" lon="4.84704">
        <ele>333</ele>
        <time>2021-11-10T17:55:37+01:00</time>
      </trkpt>
      <trkpt lat="47.08763" lon="4.84645">
        <ele>325</ele>
        <time>2021-11-10T17:55:42+01:00</time>
      </trkpt>
      <trkpt lat="47.08557" lon="4.84704">
        <ele>309</ele>
        <time>2021-11-10T17:55:47+01:00</time>
      </trkpt>
      <trkpt lat="47.08329" lon="4.84878">
        <ele>300</ele>
        <time>2021-11-10T17:55:52+01:00</time>
      </trkpt>
      <trkpt lat="47.08244" lon="4.84862">
        <ele>296</ele>
        <time>2021-11-10T17:55:57+01:00</time>
      </trkpt>
      <trkpt lat="47.08119" lon="4.84906">
        <ele>290</ele>
        <time>2021-11-10T17:56:02+01:00</time>
      </trkpt>
      <trkpt lat="47.07984" lon="4.84943">
        <ele>280</ele>
        <time>2021-11-10T17:56:07+01:00</time>
      </trkpt>
      <trkpt lat="47.07908" lon="4.85008">
        <ele>276</ele>
        <time>2021-11-10T17:56:12+01:00</time>
      </trkpt>
      <trkpt lat="47.07804" lon="4.85132">
        <ele>273</ele>
        <time>2021-11-10T17:56:17+01:00</time>
      </trkpt>
      <trkpt lat="47.07679" lon="4.85117">
        <ele>270</ele>
        <time>2021-11-10T17:56:22+01:00</time>
      </trkpt>
      <trkpt lat="47.0748" lon="4.84974">
        <ele>262</ele>
        <time>2021-11-10T17:56:27+01:00</time>
      </trkpt>
      <trkpt lat="47.07317" lon="4.84999">
        <ele>260</ele>
        <time>2021-11-10T17:56:32+01:00</time>
      </trkpt>
      <trkpt lat="47.07197" lon="4.84822">
        <ele>261</ele>
        <time>2021-11-10T17:56:37+01:00</time>
      </trkpt>
      <trkpt lat="47.07116" lon="4.84812">
        <ele>264</ele>
        <time>2021-11-10T17:56:42+01:00</time>
      </trkpt>
      <trkpt lat="47.07059" lon="4.8475">
        <ele>269</ele>
        <time>2021-11-10T17:56:47+01:00</time>
      </trkpt>
      <trkpt lat="47.0697" lon="4.84697">
        <ele>272</ele>
        <time>2021-11-10T17:56:52+01:00</time>
      </trkpt>
      <trkpt lat="47.06867" lon="4.84551">
        <ele>281</ele>
        <time>2021-11-10T17:56:57+01:00</time>
      </trkpt>
      <trkpt lat="47.06744" lon="4.84464">
        <ele>283</ele>
        <time>2021-11-10T17:57:02+01:00</time>
      </trkpt>
      <trkpt lat="47.06592" lon="4.84328">
        <ele>282</ele>
        <time>2021-11-10T17:57:07+01:00</time>
      </trkpt>
      <trkpt lat="47.06501" lon="4.84306">
        <ele>275</ele>
        <time>2021-11-10T17:57:12+01:00</time>
      </trkpt>
      <trkpt lat="47.06409" lon="4.84175">
        <ele>271</ele>
        <time>2021-11-10T17:57:17+01:00</time>
      </trkpt>
      <trkpt lat="47.06376" lon="4.83905">
        <ele>269</ele>
        <time>2021-11-10T17:57:22+01:00</time>
      </trkpt>
      <trkpt lat="47.06426" lon="4.83747">
        <ele>274</ele>
        <time>2021-11-10T17:57:27+01:00</time>
      </trkpt>
      <trkpt lat="47.06465" lon="4.83299">
        <ele>272</ele>
        <time>2021-11-10T17:57:32+01:00</time>
      </trkpt>
      <trkpt lat="47.06486" lon="4.82532">
        <ele>284</ele>
        <time>2021-11-10T17:57:37+01:00</time>
      </trkpt>
      <trkpt lat="47.06369" lon="4.82075">
        <ele>267</ele>
        <time>2021-11-10T17:57:42+01:00</time>
      </trkpt>
      <trkpt lat="47.06287" lon="4.81985">
        <ele>265</ele>
        <time>2021-11-10T17:57:47+01:00</time>
      </trkpt>
      <trkpt lat="47.06299" lon="4.81839">
        <ele>265</ele>
        <time>2021-11-10T17:57:52+01:00</time>
      </trkpt>
      <trkpt lat="47.0634" lon="4.81702">
        <ele>265</ele>
        <time>2021-11-10T17:57:57+01:00</time>
      </trkpt>
      <trkpt lat="47.06064" lon="4.81485">
        <ele>276</ele>
        <time>2021-11-10T17:58:02+01:00</time>
      </trkpt>
      <trkpt lat="47.0595" lon="4.8146">
        <ele>292</ele>
        <time>2021-11-10T17:58:07+01:00</time>
      </trkpt>
      <trkpt lat="47.0595" lon="4.81419">
        <ele>299</ele>
        <time>2021-11-10T17:58:12+01:00</time>
      </trkpt>
      <trkpt lat="47.05887" lon="4.81397">
        <ele>310</ele>
        <time>2021-11-10T17:58:17+01:00</time>
      </trkpt>
      <trkpt lat="47.05925" lon="4.80872">
        <ele>333</ele>
        <time>2021-11-10T17:58:22+01:00</time>
      </trkpt>
      <trkpt lat="47.05899" lon="4.80549">
        <ele>347</ele>
        <time>2021-11-10T17:58:27+01:00</time>
      </trkpt>
      <trkpt lat="47.05813" lon="4.79785">
        <ele>374</ele>
        <time>2021-11-10T17:58:32+01:00</time>
      </trkpt>
      <trkpt lat="47.05832" lon="4.79328">
        <ele>386</ele>
        <time>2021-11-10T17:58:37+01:00</time>
      </trkpt>
      <trkpt lat="47.06111" lon="4.77914">
        <ele>447</ele>
        <time>2021-11-10T17:58:42+01:00</time>
      </trkpt>
      <trkpt lat="47.06079" lon="4.77961">
        <ele>446</ele>
        <time>2021-11-10T17:58:47+01:00</time>
      </trkpt>
      <trkpt lat="47.06035" lon="4.77886">
        <ele>442</ele>
        <time>2021-11-10T17:58:52+01:00</time>
      </trkpt>
      <trkpt lat="47.05853" lon="4.77743">
        <ele>436</ele>
        <time>2021-11-10T17:58:57+01:00</time>
      </trkpt>
      <trkpt lat="47.05722" lon="4.77591">
        <ele>430</ele>
        <time>2021-11-10T17:59:02+01:00</time>
      </trkpt>
      <trkpt lat="47.05734" lon="4.77445">
        <ele>427</ele>
        <time>2021-11-10T17:59:07+01:00</time>
      </trkpt>
      <trkpt lat="47.05605" lon="4.7728">
        <ele>420</ele>
        <time>2021-11-10T17:59:12+01:00</time>
      </trkpt>
      <trkpt lat="47.05472" lon="4.77156">
        <ele>412</ele>
        <time>2021-11-10T17:59:17+01:00</time>
      </trkpt>
      <trkpt lat="47.05302" lon="4.77103">
        <ele>403</ele>
        <time>2021-11-10T17:59:22+01:00</time>
      </trkpt>
      <trkpt lat="47.05214" lon="4.77072">
        <ele>397</ele>
        <time>2021-11-10T17:59:27+01:00</time>
      </trkpt>
      <trkpt lat="47.05163" lon="4.77038">
        <ele>397</ele>
        <time>2021-11-10T17:59:32+01:00</time>
      </trkpt>
      <trkpt lat="47.05203" lon="4.76936">
        <ele>402</ele>
        <time>2021-11-10T17:59:37+01:00</time>
      </trkpt>
      <trkpt lat="47.05239" lon="4.76494">
        <ele>427</ele>
        <time>2021-11-10T17:59:42+01:00</time>
      </trkpt>
      <trkpt lat="47.05192" lon="4.7632">
        <ele>431</ele>
        <time>2021-11-10T17:59:47+01:00</time>
      </trkpt>
      <trkpt lat="47.05281" lon="4.76199">
        <ele>428</ele>
        <time>2021-11-10T17:59:52+01:00</time>
      </trkpt>
      <trkpt lat="47.05247" lon="4.76013">
        <ele>422</ele>
        <time>2021-11-10T17:59:57+01:00</time>
      </trkpt>
      <trkpt lat="47.05192" lon="4.75929">
        <ele>412</ele>
        <time>2021-11-10T18:00:02+01:00</time>
      </trkpt>
      <trkpt lat="47.05019" lon="4.75823">
        <ele>388</ele>
        <time>2021-11-10T18:00:07+01:00</time>
      </trkpt>
      <trkpt lat="47.0505" lon="4.75745">
        <ele>384</ele>
        <time>2021-11-10T18:00:12+01:00</time>
      </trkpt>
      <trkpt lat="47.0494" lon="4.75649">
        <ele>358</ele>
        <time>2021-11-10T18:00:17+01:00</time>
      </trkpt>
      <trkpt lat="47.05036" lon="4.75413">
        <ele>368</ele>
        <time>2021-11-10T18:00:22+01:00</time>
      </trkpt>
      <trkpt lat="47.05032" lon="4.75388">
        <ele>366</ele>
        <time>2021-11-10T18:00:27+01:00</time>
      </trkpt>
      <trkpt lat="47.04985" lon="4.75388">
        <ele>363</ele>
        <time>2021-11-10T18:00:32+01:00</time>
      </trkpt>
      <trkpt lat="47.04965" lon="4.75431">
        <ele>367</ele>
        <time>2021-11-10T18:00:37+01:00</time>
      </trkpt>
      <trkpt lat="47.04922" lon="4.75394">
        <ele>385</ele>
        <time>2021-11-10T18:00:42+01:00</time>
      </trkpt>
      <trkpt lat="47.04888" lon="4.75354">
        <ele>405</ele>
        <time>2021-11-10T18:00:47+01:00</time>
      </trkpt>
      <trkpt lat="47.04879" lon="4.75423">
        <ele>400</ele>
        <time>2021-11-10T18:00:52+01:00</time>
      </trkpt>
      <trkpt lat="47.04783" lon="4.75349">
        <ele>444</ele>
        <time>2021-11-10T18:00:57+01:00</time>
      </trkpt>
      <trkpt lat="47.04548" lon="4.75084">
        <ele>457</ele>
        <time>2021-11-10T18:01:02+01:00</time>
      </trkpt>
      <trkpt lat="47.04598" lon="4.74817">
        <ele>429</ele>
        <time>2021-11-10T18:01:07+01:00</time>
      </trkpt>
      <trkpt lat="47.04416" lon="4.74778">
        <ele>426</ele>
        <time>2021-11-10T18:01:12+01:00</time>
      </trkpt>
      <trkpt lat="47.0425" lon="4.74796">
        <ele>421</ele>
        <time>2021-11-10T18:01:17+01:00</time>
      </trkpt>
      <trkpt lat="47.03983" lon="4.74676">
        <ele>409</ele>
        <time>2021-11-10T18:01:22+01:00</time>
      </trkpt>
      <trkpt lat="47.03609" lon="4.74292">
        <ele>385</ele>
        <time>2021-11-10T18:01:27+01:00</time>
      </trkpt>
      <trkpt lat="47.03529" lon="4.7432">
        <ele>387</ele>
        <time>2021-11-10T18:01:32+01:00</time>
      </trkpt>
      <trkpt lat="47.03566" lon="4.74239">
        <ele>389</ele>
        <time>2021-11-10T18:01:37+01:00</time>
      </trkpt>
      <trkpt lat="47.036" lon="4.73955">
        <ele>405</ele>
        <time>2021-11-10T18:01:42+01:00</time>
      </trkpt>
      <trkpt lat="47.03488" lon="4.73777">
        <ele>408</ele>
        <time>2021-11-10T18:01:47+01:00</time>
      </trkpt>
      <trkpt lat="47.03376" lon="4.73722">
        <ele>404</ele>
        <time>2021-11-10T18:01:52+01:00</time>
      </trkpt>
      <trkpt lat="47.03247" lon="4.73617">
        <ele>402</ele>
        <time>2021-11-10T18:01:57+01:00</time>
      </trkpt>
      <trkpt lat="47.03132" lon="4.73575">
        <ele>397</ele>
        <time>2021-11-10T18:02:02+01:00</time>
      </trkpt>
      <trkpt lat="47.031" lon="4.73437">
        <ele>390</ele>
        <time>2021-11-10T18:02:07+01:00</time>
      </trkpt>
      <trkpt lat="47.02955" lon="4.73236">
        <ele>376</ele>
        <time>2021-11-10T18:02:12+01:00</time>
      </trkpt>
      <trkpt lat="47.02809" lon="4.72951">
        <ele>355</ele>
        <time>2021-11-10T18:02:17+01:00</time>
      </trkpt>
      <trkpt lat="47.02683" lon="4.72708">
        <ele>340</ele>
        <time>2021-11-10T18:02:22+01:00</time>
      </trkpt>
      <trkpt lat="47.02588" lon="4.72551">
        <ele>349</ele>
        <time>2021-11-10T18:02:27+01:00</time>
      </trkpt>
      <trkpt lat="47.02415" lon="4.72472">
        <ele>367</ele>
        <time>2021-11-10T18:02:32+01:00</time>
      </trkpt>
      <trkpt lat="47.02355" lon="4.72417">
        <ele>377</ele>
        <time>2021-11-10T18:02:37+01:00</time>
      </trkpt>
      <trkpt lat="47.02143" lon="4.72276">
        <ele>388</ele>
        <time>2021-11-10T18:02:42+01:00</time>
      </trkpt>
      <trkpt lat="47.01792" lon="4.72033">
        <ele>383</ele>
        <time>2021-11-10T18:02:47+01:00</time>
      </trkpt>
      <trkpt lat="47.0172" lon="4.72365">
        <ele>407</ele>
        <time>2021-11-10T18:02:52+01:00</time>
      </trkpt>
      <trkpt lat="47.01629" lon="4.72441">
        <ele>408</ele>
        <time>2021-11-10T18:02:57+01:00</time>
      </trkpt>
      <trkpt lat="47.01613" lon="4.72535">
        <ele>413</ele>
        <time>2021-11-10T18:03:02+01:00</time>
      </trkpt>
      <trkpt lat="47.01642" lon="4.72663">
        <ele>426</ele>
        <time>2021-11-10T18:03:07+01:00</time>
      </trkpt>
      <trkpt lat="47.01595" lon="4.72768">
        <ele>421</ele>
        <time>2021-11-10T18:03:12+01:00</time>
      </trkpt>
      <trkpt lat="47.01496" lon="4.72817">
        <ele>401</ele>
        <time>2021-11-10T18:03:17+01:00</time>
      </trkpt>
      <trkpt lat="47.01399" lon="4.72953">
        <ele>362</ele>
        <time>2021-11-10T18:03:22+01:00</time>
      </trkpt>
      <trkpt lat="47.01314" lon="4.7282">
        <ele>355</ele>
        <time>2021-11-10T18:03:27+01:00</time>
      </trkpt>
      <trkpt lat="47.01326" lon="4.72647">
        <ele>358</ele>
        <time>2021-11-10T18:03:32+01:00</time>
      </trkpt>
      <trkpt lat="47.01389" lon="4.72527">
        <ele>360</ele>
        <time>2021-11-10T18:03:37+01:00</time>
      </trkpt>
      <trkpt lat="47.01391" lon="4.7243">
        <ele>363</ele>
        <time>2021-11-10T18:03:42+01:00</time>
      </trkpt>
      <trkpt lat="47.01316" lon="4.7243">
        <ele>379</ele>
        <time>2021-11-10T18:03:47+01:00</time>
      </trkpt>
      <trkpt lat="47.01134" lon="4.72206">
        <ele>428</ele>
        <time>2021-11-10T18:03:52+01:00</time>
      </trkpt>
      <trkpt lat="47.01064" lon="4.72038">
        <ele>446</ele>
        <time>2021-11-10T18:03:57+01:00</time>
      </trkpt>
      <trkpt lat="47.00991" lon="4.71976">
        <ele>454</ele>
        <time>2021-11-10T18:04:02+01:00</time>
      </trkpt>
      <trkpt lat="47.00989" lon="4.71871">
        <ele>454</ele>
        <time>2021-11-10T18:04:07+01:00</time>
      </trkpt>
      <trkpt lat="47.00644" lon="4.71573">
        <ele>427</ele>
        <time>2021-11-10T18:04:12+01:00</time>
      </trkpt>
      <trkpt lat="47.00424" lon="4.71497">
        <ele>418</ele>
        <time>2021-11-10T18:04:17+01:00</time>
      </trkpt>
      <trkpt lat="47.00289" lon="4.71414">
        <ele>413</ele>
        <time>2021-11-10T18:04:22+01:00</time>
      </trkpt>
      <trkpt lat="46.99866" lon="4.7092">
        <ele>355</ele>
        <time>2021-11-10T18:04:27+01:00</time>
      </trkpt>
      <trkpt lat="46.99854" lon="4.70714">
        <ele>353</ele>
        <time>2021-11-10T18:04:32+01:00</time>
      </trkpt>
      <trkpt lat="46.99316" lon="4.70439">
        <ele>402</ele>
        <time>2021-11-10T18:04:37+01:00</time>
      </trkpt>
      <trkpt lat="46.98878" lon="4.70149">
        <ele>402</ele>
        <time>2021-11-10T18:04:42+01:00</time>
      </trkpt>
      <trkpt lat="46.99016" lon="4.69898">
        <ele>411</ele>
        <time>2021-11-10T18:04:47+01:00</time>
      </trkpt>
      <trkpt lat="46.99005" lon="4.69819">
        <ele>416</ele>
        <time>2021-11-10T18:04:52+01:00</time>
      </trkpt>
      <trkpt lat="46.99013" lon="4.69724">
        <ele>426</ele>
        <time>2021-11-10T18:04:57+01:00</time>
      </trkpt>
      <trkpt lat="46.9895" lon="4.69576">
        <ele>437</ele>
        <time>2021-11-10T18:05:02+01:00</time>
      </trkpt>
      <trkpt lat="46.98877" lon="4.69207">
        <ele>455</ele>
        <time>2021-11-10T18:05:07+01:00</time>
      </trkpt>
      <trkpt lat="46.98891" lon="4.69138">
        <ele>465</ele>
        <time>2021-11-10T18:05:12+01:00</time>
      </trkpt>
      <trkpt lat="46.98881" lon="4.69057">
        <ele>469</ele>
        <time>2021-11-10T18:05:17+01:00</time>
      </trkpt>
      <trkpt lat="46.98863" lon="4.6901">
        <ele>468</ele>
        <time>2021-11-10T18:05:22+01:00</time>
      </trkpt>
      <trkpt lat="46.9885" lon="4.68898">
        <ele>476</ele>
        <time>2021-11-10T18:05:27+01:00</time>
      </trkpt>
      <trkpt lat="46.98883" lon="4.68908">
        <ele>483</ele>
        <time>2021-11-10T18:05:32+01:00</time>
      </trkpt>
      <trkpt lat="46.98921" lon="4.68877">
        <ele>495</ele>
        <time>2021-11-10T18:05:37+01:00</time>
      </trkpt>
      <trkpt lat="46.98946" lon="4.68892">
        <ele>503</ele>
        <time>2021-11-10T18:05:42+01:00</time>
      </trkpt>
      <trkpt lat="46.98968" lon="4.6897">
        <ele>504</ele>
        <time>2021-11-10T18:05:47+01:00</time>
      </trkpt>
      <trkpt lat="46.99" lon="4.69039">
        <ele>509</ele>
        <time>2021-11-10T18:05:52+01:00</time>
      </trkpt>
    </trkseg>
  </trk>
</gpx>